Terminal Aerodrome Forecast
Issued by NWS Cleveland, OH

Home | Current Version | Previous Version | Text Only | Print | Product List | Glossary On
Versions: 1 2 3 4 5 6 7 8 9 10 11 12 13 14 15 16
000
FTUS41 KCLE 211139
TAFCAK
TAF
KCAK 211139Z 2112/2212 21005KT P6SM SCT035 BKN200
     FM211900 23007KT P6SM VCTS SCT040CB BKN200
     FM220200 20005KT P6SM SCT200
     FM220600 20005KT P6SM BKN150=

USA.gov is the U.S. government's official web portal to all federal, state and local government web resources and services.